sensor_id;sensor_type;location;lat;lon;timestamp;pressure;altitude;pressure_sealevel;temperature;humidity
84592;BME280;74826;50.812;16.038;2024-02-21T00:01:18;97360.59;;;7.33;75.71
84592;BME280;74826;50.812;16.038;2024-02-21T00:03:45;97349.22;;;7.38;75.20
84592;BME280;74826;50.812;16.038;2024-02-21T00:06:10;97349.31;;;7.51;74.47
84592;BME280;74826;50.812;16.038;2024-02-21T00:08:36;97344.44;;;7.45;74.35
84592;BME280;74826;50.812;16.038;2024-02-21T00:11:01;97340.31;;;7.39;74.93
84592;BME280;74826;50.812;16.038;2024-02-21T00:13:26;97336.63;;;7.16;75.63
84592;BME280;74826;50.812;16.038;2024-02-21T00:15:52;97342.56;;;7.27;75.31
84592;BME280;74826;50.812;16.038;2024-02-21T00:18:17;97341.97;;;7.30;75.40
84592;BME280;74826;50.812;16.038;2024-02-21T00:20:42;97338.63;;;7.24;75.83
84592;BME280;74826;50.812;16.038;2024-02-21T00:23:08;97340.66;;;7.08;75.78
84592;BME280;74826;50.812;16.038;2024-02-21T00:25:33;97337.53;;;7.06;76.41
84592;BME280;74826;50.812;16.038;2024-02-21T00:27:59;97329.63;;;7.11;76.15
84592;BME280;74826;50.812;16.038;2024-02-21T00:30:24;97328.84;;;7.11;76.09
84592;BME280;74826;50.812;16.038;2024-02-21T00:32:49;97332.13;;;7.22;76.25
84592;BME280;74826;50.812;16.038;2024-02-21T00:35:15;97328.16;;;7.24;76.18
84592;BME280;74826;50.812;16.038;2024-02-21T00:37:40;97311.81;;;7.08;75.24
84592;BME280;74826;50.812;16.038;2024-02-21T00:40:06;97331.28;;;7.02;75.95
84592;BME280;74826;50.812;16.038;2024-02-21T00:42:31;97317.75;;;6.95;76.62
84592;BME280;74826;50.812;16.038;2024-02-21T00:44:56;97310.69;;;6.72;76.82
84592;BME280;74826;50.812;16.038;2024-02-21T00:47:22;97305.94;;;6.46;78.15
84592;BME280;74826;50.812;16.038;2024-02-21T00:49:47;97320.25;;;6.58;78.42
84592;BME280;74826;50.812;16.038;2024-02-21T00:52:12;97308.09;;;6.67;78.64
84592;BME280;74826;50.812;16.038;2024-02-21T00:54:37;97307.56;;;6.70;77.59
84592;BME280;74826;50.812;16.038;2024-02-21T00:57:03;97307.69;;;6.79;77.20
84592;BME280;74826;50.812;16.038;2024-02-21T00:59:28;97316.03;;;6.86;77.17
84592;BME280;74826;50.812;16.038;2024-02-21T01:01:54;97305.81;;;6.84;77.70
84592;BME280;74826;50.812;16.038;2024-02-21T01:04:19;97301.63;;;6.83;77.30
84592;BME280;74826;50.812;16.038;2024-02-21T01:06:44;97299.94;;;6.92;77.48
84592;BME280;74826;50.812;16.038;2024-02-21T01:09:10;97303.84;;;6.95;77.10
84592;BME280;74826;50.812;16.038;2024-02-21T01:11:36;97279.63;;;6.79;76.65
84592;BME280;74826;50.812;16.038;2024-02-21T01:14:02;97299.94;;;6.92;76.72
84592;BME280;74826;50.812;16.038;2024-02-21T01:16:27;97290.69;;;6.76;77.25
84592;BME280;74826;50.812;16.038;2024-02-21T01:18:52;97289.69;;;6.72;77.03
84592;BME280;74826;50.812;16.038;2024-02-21T01:21:18;97264.59;;;6.66;77.16
84592;BME280;74826;50.812;16.038;2024-02-21T01:23:43;97286.97;;;6.82;77.26
84592;BME280;74826;50.812;16.038;2024-02-21T01:26:09;97281.22;;;6.80;77.27
84592;BME280;74826;50.812;16.038;2024-02-21T01:28:38;97262.91;;;6.75;76.88
84592;BME280;74826;50.812;16.038;2024-02-21T01:31:03;97267.84;;;6.58;78.26
84592;BME280;74826;50.812;16.038;2024-02-21T01:33:29;97265.38;;;6.67;77.08
84592;BME280;74826;50.812;16.038;2024-02-21T01:36:00;97257.78;;;6.65;77.47
84592;BME280;74826;50.812;16.038;2024-02-21T01:38:26;97258.56;;;6.66;77.33
84592;BME280;74826;50.812;16.038;2024-02-21T01:40:51;97247.06;;;6.62;77.87
84592;BME280;74826;50.812;16.038;2024-02-21T01:43:19;97250.66;;;6.71;77.32
84592;BME280;74826;50.812;16.038;2024-02-21T01:45:53;97237.59;;;6.66;77.12
84592;BME280;74826;50.812;16.038;2024-02-21T01:48:20;97242.28;;;6.69;77.36
84592;BME280;74826;50.812;16.038;2024-02-21T01:50:47;97239.16;;;6.67;77.24
84592;BME280;74826;50.812;16.038;2024-02-21T01:53:16;97233.13;;;6.66;77.62
84592;BME280;74826;50.812;16.038;2024-02-21T01:55:47;97240.38;;;6.74;76.89
84592;BME280;74826;50.812;16.038;2024-02-21T01:58:16;97233.13;;;6.66;76.81
84592;BME280;74826;50.812;16.038;2024-02-21T02:00:43;97227.91;;;6.66;76.74
84592;BME280;74826;50.812;16.038;2024-02-21T02:03:10;97220.66;;;6.58;77.27
84592;BME280;74826;50.812;16.038;2024-02-21T02:05:44;97221.44;;;6.59;76.98
84592;BME280;74826;50.812;16.038;2024-02-21T02:08:12;97224.19;;;6.67;76.41
84592;BME280;74826;50.812;16.038;2024-02-21T02:10:38;97216.72;;;6.56;76.67
84592;BME280;74826;50.812;16.038;2024-02-21T02:13:04;97224.06;;;6.77;76.10
84592;BME280;74826;50.812;16.038;2024-02-21T02:15:43;97223.66;;;6.70;76.44
84592;BME280;74826;50.812;16.038;2024-02-21T02:18:13;97212.50;;;6.60;76.96
84592;BME280;74826;50.812;16.038;2024-02-21T02:20:39;97205.50;;;6.55;76.47
84592;BME280;74826;50.812;16.038;2024-02-21T02:25:48;97214.94;;;6.75;76.03
84592;BME280;74826;50.812;16.038;2024-02-21T02:28:17;97208.34;;;6.77;75.89
84592;BME280;74826;50.812;16.038;2024-02-21T02:30:43;97207.78;;;6.80;75.92
84592;BME280;74826;50.812;16.038;2024-02-21T02:33:09;97210.56;;;6.89;75.16
84592;BME280;74826;50.812;16.038;2024-02-21T02:35:35;97210.41;;;6.80;75.57
84592;BME280;74826;50.812;16.038;2024-02-21T02:38:02;97212.19;;;6.85;75.48
84592;BME280;74826;50.812;16.038;2024-02-21T02:40:27;97200.19;;;6.79;75.69
84592;BME280;74826;50.812;16.038;2024-02-21T02:42:53;97197.94;;;6.72;75.92
84592;BME280;74826;50.812;16.038;2024-02-21T02:45:21;97201.97;;;6.83;76.04
84592;BME280;74826;50.812;16.038;2024-02-21T02:47:47;97193.41;;;6.78;75.93
84592;BME280;74826;50.812;16.038;2024-02-21T02:50:13;97184.25;;;6.75;75.39
84592;BME280;74826;50.812;16.038;2024-02-21T02:52:39;97180.28;;;6.59;76.13
84592;BME280;74826;50.812;16.038;2024-02-21T02:55:05;97199.25;;;6.51;76.43
84592;BME280;74826;50.812;16.038;2024-02-21T02:57:31;97195.44;;;6.62;76.49
84592;BME280;74826;50.812;16.038;2024-02-21T02:59:57;97171.47;;;6.50;76.36
84592;BME280;74826;50.812;16.038;2024-02-21T03:02:22;97189.19;;;6.58;75.84
84592;BME280;74826;50.812;16.038;2024-02-21T03:04:48;97182.72;;;6.51;76.36
84592;BME280;74826;50.812;16.038;2024-02-21T03:07:14;97188.63;;;6.61;76.06
84592;BME280;74826;50.812;16.038;2024-02-21T03:09:40;97182.22;;;6.49;76.30
84592;BME280;74826;50.812;16.038;2024-02-21T03:12:08;97172.69;;;6.34;76.36
84592;BME280;74826;50.812;16.038;2024-02-21T03:14:33;97176.19;;;6.48;76.56
84592;BME280;74826;50.812;16.038;2024-02-21T03:16:59;97176.72;;;6.50;76.48
84592;BME280;74826;50.812;16.038;2024-02-21T03:19:25;97154.31;;;6.39;76.20
84592;BME280;74826;50.812;16.038;2024-02-21T03:21:51;97164.88;;;6.53;76.56
84592;BME280;74826;50.812;16.038;2024-02-21T03:24:17;97167.44;;;6.58;75.85
84592;BME280;74826;50.812;16.038;2024-02-21T03:26:42;97142.84;;;6.35;75.74
84592;BME280;74826;50.812;16.038;2024-02-21T03:29:08;97163.84;;;6.30;76.22
84592;BME280;74826;50.812;16.038;2024-02-21T03:31:37;97153.44;;;6.25;76.61
84592;BME280;74826;50.812;16.038;2024-02-21T03:34:03;97160.09;;;6.36;76.72
84592;BME280;74826;50.812;16.038;2024-02-21T03:36:28;97151.69;;;6.39;76.51
84592;BME280;74826;50.812;16.038;2024-02-21T03:38:54;97152.63;;;6.48;76.25
84592;BME280;74826;50.812;16.038;2024-02-21T03:41:20;97168.50;;;6.57;75.89
84592;BME280;74826;50.812;16.038;2024-02-21T03:43:45;97150.28;;;6.65;75.58
84592;BME280;74826;50.812;16.038;2024-02-21T03:46:11;97152.38;;;6.68;75.89
84592;BME280;74826;50.812;16.038;2024-02-21T03:48:36;97159.59;;;6.76;75.13
84592;BME280;74826;50.812;16.038;2024-02-21T03:51:02;97157.47;;;6.78;74.86
84592;BME280;74826;50.812;16.038;2024-02-21T03:53:27;97150.16;;;6.75;74.83
84592;BME280;74826;50.812;16.038;2024-02-21T03:55:53;97156.47;;;6.74;74.45
84592;BME280;74826;50.812;16.038;2024-02-21T03:58:20;97148.53;;;6.79;74.69
84592;BME280;74826;50.812;16.038;2024-02-21T04:00:45;97159.31;;;6.59;75.10
84592;BME280;74826;50.812;16.038;2024-02-21T04:03:10;97169.22;;;6.62;75.48
84592;BME280;74826;50.812;16.038;2024-02-21T04:05:36;97151.50;;;6.54;75.13
84592;BME280;74826;50.812;16.038;2024-02-21T04:08:07;97153.28;;;6.59;75.50
84592;BME280;74826;50.812;16.038;2024-02-21T04:10:33;97146.03;;;6.51;75.83
84592;BME280;74826;50.812;16.038;2024-02-21T04:12:58;97153.41;;;6.49;75.64
84592;BME280;74826;50.812;16.038;2024-02-21T04:15:24;97145.25;;;6.50;76.08
84592;BME280;74826;50.812;16.038;2024-02-21T04:17:49;97144.53;;;6.45;75.36
84592;BME280;74826;50.812;16.038;2024-02-21T04:20:16;97147.94;;;6.45;76.11
84592;BME280;74826;50.812;16.038;2024-02-21T04:22:45;97144.84;;;6.43;75.82
84592;BME280;74826;50.812;16.038;2024-02-21T04:25:11;97143.53;;;6.41;75.72
84592;BME280;74826;50.812;16.038;2024-02-21T04:27:40;97136.25;;;6.38;75.62
84592;BME280;74826;50.812;16.038;2024-02-21T04:30:06;97130.69;;;6.20;76.52
84592;BME280;74826;50.812;16.038;2024-02-21T04:32:32;97137.72;;;6.25;76.30
84592;BME280;74826;50.812;16.038;2024-02-21T04:34:57;97138.72;;;6.29;75.88
84592;BME280;74826;50.812;16.038;2024-02-21T04:37:23;97130.34;;;6.27;76.17
84592;BME280;74826;50.812;16.038;2024-02-21T04:39:49;97129.34;;;6.23;76.31
84592;BME280;74826;50.812;16.038;2024-02-21T04:42:14;97111.69;;;6.10;76.70
84592;BME280;74826;50.812;16.038;2024-02-21T04:44:40;97121.09;;;6.35;76.60
84592;BME280;74826;50.812;16.038;2024-02-21T04:47:07;97125.69;;;6.24;76.98
84592;BME280;74826;50.812;16.038;2024-02-21T04:49:32;97126.09;;;6.31;76.70
84592;BME280;74826;50.812;16.038;2024-02-21T04:51:58;97124.03;;;6.28;76.54
84592;BME280;74826;50.812;16.038;2024-02-21T04:54:23;97117.53;;;6.25;77.20
84592;BME280;74826;50.812;16.038;2024-02-21T04:56:49;97117.69;;;6.34;77.00
84592;BME280;74826;50.812;16.038;2024-02-21T04:59:14;97128.81;;;6.26;77.03
84592;BME280;74826;50.812;16.038;2024-02-21T05:01:40;97114.06;;;6.30;77.39
84592;BME280;74826;50.812;16.038;2024-02-21T05:04:05;97113.72;;;6.37;76.75
84592;BME280;74826;50.812;16.038;2024-02-21T05:06:31;97118.13;;;6.41;77.06
84592;BME280;74826;50.812;16.038;2024-02-21T05:08:56;97095.22;;;6.28;76.57
84592;BME280;74826;50.812;16.038;2024-02-21T05:11:23;97106.44;;;6.52;76.41
84592;BME280;74826;50.812;16.038;2024-02-21T05:13:50;97094.66;;;6.50;76.54
84592;BME280;74826;50.812;16.038;2024-02-21T05:16:15;97113.66;;;6.60;75.97
84592;BME280;74826;50.812;16.038;2024-02-21T05:18:41;97089.00;;;6.61;75.21
84592;BME280;74826;50.812;16.038;2024-02-21T05:21:07;97093.69;;;6.64;75.63
84592;BME280;74826;50.812;16.038;2024-02-21T05:23:33;97092.53;;;6.52;74.67
84592;BME280;74826;50.812;16.038;2024-02-21T05:25:58;97090.88;;;6.61;75.61
84592;BME280;74826;50.812;16.038;2024-02-21T05:28:24;97094.81;;;6.58;75.42
84592;BME280;74826;50.812;16.038;2024-02-21T05:30:49;97089.28;;;6.60;75.88
84592;BME280;74826;50.812;16.038;2024-02-21T05:33:15;97087.31;;;6.70;75.83
84592;BME280;74826;50.812;16.038;2024-02-21T05:35:46;97080.22;;;6.52;76.10
84592;BME280;74826;50.812;16.038;2024-02-21T05:38:12;97083.28;;;6.59;76.26
84592;BME280;74826;50.812;16.038;2024-02-21T05:40:38;97086.13;;;6.63;76.06
84592;BME280;74826;50.812;16.038;2024-02-21T05:43:03;97086.88;;;6.63;75.58
84592;BME280;74826;50.812;16.038;2024-02-21T05:45:28;97064.50;;;6.52;75.35
84592;BME280;74826;50.812;16.038;2024-02-21T05:47:54;97081.13;;;6.61;75.66
84592;BME280;74826;50.812;16.038;2024-02-21T05:50:19;97081.28;;;6.70;75.74
84592;BME280;74826;50.812;16.038;2024-02-21T05:52:46;97077.97;;;6.64;75.50
84592;BME280;74826;50.812;16.038;2024-02-21T05:55:12;97082.28;;;6.74;75.13
84592;BME280;74826;50.812;16.038;2024-02-21T05:57:37;97079.38;;;6.75;75.19
84592;BME280;74826;50.812;16.038;2024-02-21T06:00:05;97070.41;;;6.63;75.82
84592;BME280;74826;50.812;16.038;2024-02-21T06:02:30;97084.63;;;6.75;75.67
84592;BME280;74826;50.812;16.038;2024-02-21T06:04:55;97078.59;;;6.56;76.42
84592;BME280;74826;50.812;16.038;2024-02-21T06:07:21;97075.97;;;6.56;76.35
84592;BME280;74826;50.812;16.038;2024-02-21T06:09:46;97090.56;;;6.62;76.28
84592;BME280;74826;50.812;16.038;2024-02-21T06:12:12;97077.75;;;6.61;76.65
84592;BME280;74826;50.812;16.038;2024-02-21T06:14:37;97073.72;;;6.68;76.20
84592;BME280;74826;50.812;16.038;2024-02-21T06:17:03;97083.13;;;6.69;75.98
84592;BME280;74826;50.812;16.038;2024-02-21T06:19:28;97084.06;;;6.78;75.87
84592;BME280;74826;50.812;16.038;2024-02-21T06:21:53;97083.06;;;6.74;75.82
84592;BME280;74826;50.812;16.038;2024-02-21T06:24:19;97080.81;;;6.49;76.84
84592;BME280;74826;50.812;16.038;2024-02-21T06:26:44;97077.13;;;6.50;77.18
84592;BME280;74826;50.812;16.038;2024-02-21T06:29:11;97055.53;;;6.40;77.14
84592;BME280;74826;50.812;16.038;2024-02-21T06:31:38;97078.69;;;6.51;77.23
84592;BME280;74826;50.812;16.038;2024-02-21T06:34:04;97069.41;;;6.59;77.12
84592;BME280;74826;50.812;16.038;2024-02-21T06:36:29;97056.00;;;6.60;76.78
84592;BME280;74826;50.812;16.038;2024-02-21T06:38:55;97069.88;;;6.79;75.43
84592;BME280;74826;50.812;16.038;2024-02-21T06:41:20;97076.94;;;6.79;76.36
84592;BME280;74826;50.812;16.038;2024-02-21T06:43:46;97088.72;;;6.81;75.81
84592;BME280;74826;50.812;16.038;2024-02-21T06:46:12;97086.25;;;6.71;76.43
84592;BME280;74826;50.812;16.038;2024-02-21T06:48:37;97068.88;;;6.75;75.83
84592;BME280;74826;50.812;16.038;2024-02-21T06:51:03;97072.78;;;6.78;76.18
84592;BME280;74826;50.812;16.038;2024-02-21T06:53:29;97066.34;;;6.70;76.03
84592;BME280;74826;50.812;16.038;2024-02-21T06:55:55;97058.53;;;6.65;76.18
84592;BME280;74826;50.812;16.038;2024-02-21T06:58:20;97069.03;;;6.84;76.05
84592;BME280;74826;50.812;16.038;2024-02-21T07:00:46;97062.88;;;6.75;75.97
84592;BME280;74826;50.812;16.038;2024-02-21T07:03:11;97049.03;;;6.69;76.33
84592;BME280;74826;50.812;16.038;2024-02-21T07:05:36;97056.34;;;6.72;76.25
84592;BME280;74826;50.812;16.038;2024-02-21T07:08:02;97047.41;;;6.73;76.12
84592;BME280;74826;50.812;16.038;2024-02-21T07:10:28;97059.88;;;6.81;76.43
84592;BME280;74826;50.812;16.038;2024-02-21T07:12:54;97066.03;;;6.90;75.67
84592;BME280;74826;50.812;16.038;2024-02-21T07:15:20;97062.75;;;6.98;76.58
84592;BME280;74826;50.812;16.038;2024-02-21T07:17:46;97063.97;;;7.06;75.36
84592;BME280;74826;50.812;16.038;2024-02-21T07:20:11;97065.22;;;7.08;75.66
84592;BME280;74826;50.812;16.038;2024-02-21T07:22:37;97059.66;;;7.10;75.75
84592;BME280;74826;50.812;16.038;2024-02-21T07:25:02;97063.56;;;7.12;75.87
84592;BME280;74826;50.812;16.038;2024-02-21T07:27:28;97067.78;;;7.13;75.99
84592;BME280;74826;50.812;16.038;2024-02-21T07:29:56;97057.56;;;7.26;75.57
84592;BME280;74826;50.812;16.038;2024-02-21T07:32:22;97047.53;;;7.14;75.73
84592;BME280;74826;50.812;16.038;2024-02-21T07:34:47;97042.03;;;7.15;76.30
84592;BME280;74826;50.812;16.038;2024-02-21T07:37:13;97049.03;;;7.34;75.49
84592;BME280;74826;50.812;16.038;2024-02-21T07:39:38;97048.28;;;7.47;76.19
84592;BME280;74826;50.812;16.038;2024-02-21T07:42:04;97050.16;;;7.60;73.80
84592;BME280;74826;50.812;16.038;2024-02-21T07:44:29;97033.91;;;7.58;74.58
84592;BME280;74826;50.812;16.038;2024-02-21T07:46:57;97038.97;;;7.81;73.83
84592;BME280;74826;50.812;16.038;2024-02-21T07:49:22;97037.41;;;7.67;73.32
84592;BME280;74826;50.812;16.038;2024-02-21T07:51:47;97026.13;;;7.53;74.77
84592;BME280;74826;50.812;16.038;2024-02-21T07:54:13;97017.78;;;7.51;75.04
84592;BME280;74826;50.812;16.038;2024-02-21T07:56:39;97019.50;;;7.69;75.23
84592;BME280;74826;50.812;16.038;2024-02-21T07:59:04;97006.38;;;7.42;74.50
84592;BME280;74826;50.812;16.038;2024-02-21T08:01:30;97015.22;;;7.59;75.59
84592;BME280;74826;50.812;16.038;2024-02-21T08:03:55;97020.47;;;7.46;75.06
84592;BME280;74826;50.812;16.038;2024-02-21T08:06:21;97011.53;;;7.33;76.10
84592;BME280;74826;50.812;16.038;2024-02-21T08:08:46;97015.19;;;7.18;76.40
84592;BME280;74826;50.812;16.038;2024-02-21T08:11:11;96998.69;;;7.32;76.17
84592;BME280;74826;50.812;16.038;2024-02-21T08:13:37;96976.31;;;7.07;76.23
84592;BME280;74826;50.812;16.038;2024-02-21T08:16:02;96995.56;;;7.30;76.02
84592;BME280;74826;50.812;16.038;2024-02-21T08:18:28;96991.72;;;7.54;75.62
84592;BME280;74826;50.812;16.038;2024-02-21T08:20:54;97008.22;;;7.41;74.71
84592;BME280;74826;50.812;16.038;2024-02-21T08:23:19;96996.38;;;7.44;75.90
84592;BME280;74826;50.812;16.038;2024-02-21T08:25:45;96998.91;;;7.76;75.50
84592;BME280;74826;50.812;16.038;2024-02-21T08:28:10;96987.81;;;7.52;75.27
84592;BME280;74826;50.812;16.038;2024-02-21T08:30:36;96997.34;;;7.48;75.85
84592;BME280;74826;50.812;16.038;2024-02-21T08:33:01;96989.47;;;7.34;76.13
84592;BME280;74826;50.812;16.038;2024-02-21T08:35:27;96977.41;;;7.19;75.97
84592;BME280;74826;50.812;16.038;2024-02-21T08:37:52;96992.50;;;7.55;75.10
84592;BME280;74826;50.812;16.038;2024-02-21T08:40:18;96984.50;;;7.60;74.71
84592;BME280;74826;50.812;16.038;2024-02-21T08:42:46;96984.00;;;7.71;75.87
84592;BME280;74826;50.812;16.038;2024-02-21T08:45:12;96982.94;;;7.86;75.10
84592;BME280;74826;50.812;16.038;2024-02-21T08:47:40;96987.31;;;7.77;74.55
84592;BME280;74826;50.812;16.038;2024-02-21T08:50:06;96991.53;;;7.64;74.66
84592;BME280;74826;50.812;16.038;2024-02-21T08:52:32;96986.75;;;7.80;74.02
84592;BME280;74826;50.812;16.038;2024-02-21T08:54:57;96982.16;;;7.85;74.70
84592;BME280;74826;50.812;16.038;2024-02-21T08:57:23;96960.22;;;7.54;74.58
84592;BME280;74826;50.812;16.038;2024-02-21T08:59:48;96983.91;;;7.49;75.12
84592;BME280;74826;50.812;16.038;2024-02-21T09:02:14;96970.59;;;7.46;75.86
84592;BME280;74826;50.812;16.038;2024-02-21T09:04:41;96973.91;;;7.65;75.89
84592;BME280;74826;50.812;16.038;2024-02-21T09:07:06;96960.50;;;7.66;76.98
84592;BME280;74826;50.812;16.038;2024-02-21T09:09:32;96970.25;;;8.01;75.61
84592;BME280;74826;50.812;16.038;2024-02-21T09:11:58;96975.91;;;7.95;75.01
84592;BME280;74826;50.812;16.038;2024-02-21T09:14:30;96976.31;;;7.75;75.31
84592;BME280;74826;50.812;16.038;2024-02-21T09:16:56;96964.47;;;7.77;76.02
84592;BME280;74826;50.812;16.038;2024-02-21T09:19:21;96970.81;;;8.12;76.54
84592;BME280;74826;50.812;16.038;2024-02-21T09:21:47;96976.00;;;8.39;73.98
84592;BME280;74826;50.812;16.038;2024-02-21T09:24:12;96970.44;;;8.05;73.73
84592;BME280;74826;50.812;16.038;2024-02-21T09:26:37;96958.31;;;8.31;73.68
84592;BME280;74826;50.812;16.038;2024-02-21T09:29:03;96964.91;;;8.42;74.85
84592;BME280;74826;50.812;16.038;2024-02-21T09:31:29;96952.00;;;8.19;73.33
84592;BME280;74826;50.812;16.038;2024-02-21T09:33:54;96961.88;;;8.13;74.88
84592;BME280;74826;50.812;16.038;2024-02-21T09:36:20;96960.47;;;8.16;75.12
84592;BME280;74826;50.812;16.038;2024-02-21T09:38:46;96960.50;;;8.02;74.23
84592;BME280;74826;50.812;16.038;2024-02-21T09:41:16;96969.84;;;8.08;75.32
84592;BME280;74826;50.812;16.038;2024-02-21T09:43:45;96966.56;;;8.02;73.57
84592;BME280;74826;50.812;16.038;2024-02-21T09:46:16;96958.28;;;8.09;75.28
84592;BME280;74826;50.812;16.038;2024-02-21T09:51:37;96962.16;;;7.98;73.96
84592;BME280;74826;50.812;16.038;2024-02-21T09:54:07;96940.59;;;8.01;76.09
84592;BME280;74826;50.812;16.038;2024-02-21T09:56:32;96960.13;;;8.08;72.66
84592;BME280;74826;50.812;16.038;2024-02-21T09:58:58;96952.97;;;7.87;73.30
84592;BME280;74826;50.812;16.038;2024-02-21T10:01:23;96952.97;;;7.87;74.78
84592;BME280;74826;50.812;16.038;2024-02-21T10:03:49;96960.00;;;7.78;75.45
84592;BME280;74826;50.812;16.038;2024-02-21T10:06:15;96949.09;;;7.71;74.55
84592;BME280;74826;50.812;16.038;2024-02-21T10:08:40;96947.13;;;7.76;73.98
84592;BME280;74826;50.812;16.038;2024-02-21T10:11:06;96939.38;;;7.71;73.71
84592;BME280;74826;50.812;16.038;2024-02-21T10:13:35;96950.03;;;7.88;74.08
84592;BME280;74826;50.812;16.038;2024-02-21T10:16:05;96896.78;;;7.61;73.18
84592;BME280;74826;50.812;16.038;2024-02-21T10:18:31;96938.22;;;7.64;76.05
84592;BME280;74826;50.812;16.038;2024-02-21T10:21:14;96944.47;;;7.90;73.32
84592;BME280;74826;50.812;16.038;2024-02-21T10:23:45;96928.97;;;7.80;74.74
84592;BME280;74826;50.812;16.038;2024-02-21T10:26:10;96897.50;;;7.53;74.38
84592;BME280;74826;50.812;16.038;2024-02-21T10:28:37;96951.91;;;7.88;73.48
84592;BME280;74826;50.812;16.038;2024-02-21T10:31:07;96922.28;;;7.60;73.43
84592;BME280;74826;50.812;16.038;2024-02-21T10:33:32;96929.06;;;7.75;72.94
84592;BME280;74826;50.812;16.038;2024-02-21T10:36:08;96931.13;;;7.64;74.00
84592;BME280;74826;50.812;16.038;2024-02-21T10:38:38;96920.53;;;7.56;74.69
84592;BME280;74826;50.812;16.038;2024-02-21T10:41:05;96922.06;;;7.57;73.79
84592;BME280;74826;50.812;16.038;2024-02-21T10:43:39;96927.41;;;7.65;73.57
84592;BME280;74826;50.812;16.038;2024-02-21T10:46:06;96927.53;;;7.60;74.06
84592;BME280;74826;50.812;16.038;2024-02-21T10:48:42;96922.63;;;7.81;74.06
84592;BME280;74826;50.812;16.038;2024-02-21T10:51:14;96896.88;;;8.05;71.68
84592;BME280;74826;50.812;16.038;2024-02-21T10:53:50;96917.28;;;8.66;71.18
84592;BME280;74826;50.812;16.038;2024-02-21T10:56:31;96919.06;;;8.87;70.03
84592;BME280;74826;50.812;16.038;2024-02-21T10:59:01;96897.75;;;8.97;71.84
84592;BME280;74826;50.812;16.038;2024-02-21T11:01:28;96900.38;;;8.89;70.10
84592;BME280;74826;50.812;16.038;2024-02-21T11:03:56;96913.97;;;8.60;70.19
84592;BME280;74826;50.812;16.038;2024-02-21T11:06:22;96915.16;;;8.54;71.08
84592;BME280;74826;50.812;16.038;2024-02-21T11:09:05;96904.19;;;8.52;71.63
84592;BME280;74826;50.812;16.038;2024-02-21T11:11:35;96903.72;;;8.50;70.19
84592;BME280;74826;50.812;16.038;2024-02-21T11:16:38;96888.91;;;8.85;70.34
84592;BME280;74826;50.812;16.038;2024-02-21T11:19:08;96891.00;;;9.14;69.09
84592;BME280;74826;50.812;16.038;2024-02-21T11:21:36;96883.28;;;9.09;69.57
84592;BME280;74826;50.812;16.038;2024-02-21T11:24:05;96881.56;;;8.73;70.03
84592;BME280;74826;50.812;16.038;2024-02-21T11:26:31;96884.31;;;8.68;70.35
84592;BME280;74826;50.812;16.038;2024-02-21T11:28:58;96872.59;;;8.74;70.00
84592;BME280;74826;50.812;16.038;2024-02-21T11:31:25;96850.44;;;9.06;68.04
84592;BME280;74826;50.812;16.038;2024-02-21T11:33:52;96883.78;;;9.28;67.44
84592;BME280;74826;50.812;16.038;2024-02-21T11:36:27;96869.13;;;9.61;67.04
84592;BME280;74826;50.812;16.038;2024-02-21T11:38:53;96873.16;;;9.75;67.49
84592;BME280;74826;50.812;16.038;2024-02-21T11:41:19;96880.16;;;9.97;65.67
84592;BME280;74826;50.812;16.038;2024-02-21T11:43:46;96880.47;;;9.96;64.78
84592;BME280;74826;50.812;16.038;2024-02-21T11:46:14;96848.31;;;10.53;64.24
84592;BME280;74826;50.812;16.038;2024-02-21T11:48:40;96858.56;;;11.01;62.59
84592;BME280;74826;50.812;16.038;2024-02-21T11:51:06;96869.53;;;11.12;61.05
84592;BME280;74826;50.812;16.038;2024-02-21T11:53:31;96873.28;;;11.40;59.80
84592;BME280;74826;50.812;16.038;2024-02-21T11:55:58;96879.66;;;11.39;59.90
84592;BME280;74826;50.812;16.038;2024-02-21T11:58:24;96878.34;;;11.45;59.68
84592;BME280;74826;50.812;16.038;2024-02-21T12:00:49;96865.81;;;11.42;59.62
84592;BME280;74826;50.812;16.038;2024-02-21T12:03:14;96863.41;;;10.91;61.25
84592;BME280;74826;50.812;16.038;2024-02-21T12:05:41;96858.25;;;10.56;62.31
84592;BME280;74826;50.812;16.038;2024-02-21T12:08:06;96862.88;;;10.59;61.94
84592;BME280;74826;50.812;16.038;2024-02-21T12:10:33;96857.69;;;10.25;62.20
84592;BME280;74826;50.812;16.038;2024-02-21T12:13:10;96860.97;;;10.14;64.67
84592;BME280;74826;50.812;16.038;2024-02-21T12:15:35;96854.91;;;9.96;66.31
84592;BME280;74826;50.812;16.038;2024-02-21T12:18:01;96854.28;;;9.82;65.30
84592;BME280;74826;50.812;16.038;2024-02-21T12:20:26;96851.94;;;9.72;65.19
84592;BME280;74826;50.812;16.038;2024-02-21T12:22:52;96842.81;;;9.78;65.42
84592;BME280;74826;50.812;16.038;2024-02-21T12:25:20;96834.28;;;9.89;64.87
84592;BME280;74826;50.812;16.038;2024-02-21T12:27:51;96848.38;;;9.76;65.32
84592;BME280;74826;50.812;16.038;2024-02-21T12:30:17;96839.34;;;9.35;66.44
84592;BME280;74826;50.812;16.038;2024-02-21T12:32:42;96837.34;;;9.40;67.94
84592;BME280;74826;50.812;16.038;2024-02-21T12:35:08;96834.97;;;9.13;67.73
84592;BME280;74826;50.812;16.038;2024-02-21T12:37:33;96832.19;;;9.27;67.40
84592;BME280;74826;50.812;16.038;2024-02-21T12:39:59;96830.69;;;9.60;66.42
84592;BME280;74826;50.812;16.038;2024-02-21T12:42:25;96834.28;;;9.72;65.28
84592;BME280;74826;50.812;16.038;2024-02-21T12:44:54;96810.84;;;10.05;64.78
84592;BME280;74826;50.812;16.038;2024-02-21T12:47:19;96812.31;;;10.57;62.59
84592;BME280;74826;50.812;16.038;2024-02-21T12:49:48;96786.56;;;10.92;61.37
84592;BME280;74826;50.812;16.038;2024-02-21T12:52:14;96807.88;;;11.37;59.73
84592;BME280;74826;50.812;16.038;2024-02-21T12:54:39;96787.66;;;11.82;58.48
84592;BME280;74826;50.812;16.038;2024-02-21T12:57:05;96798.66;;;11.72;58.54
84592;BME280;74826;50.812;16.038;2024-02-21T12:59:30;96777.97;;;11.86;58.09
84592;BME280;74826;50.812;16.038;2024-02-21T13:01:56;96801.91;;;12.22;56.13
84592;BME280;74826;50.812;16.038;2024-02-21T13:04:21;96769.06;;;12.23;56.28